sensor_id;sensor_type;location;lat;lon;timestamp;P1;durP1;ratioP1;P2;durP2;ratioP2
69026;SDS011;56080;47.594;19.116;2023-02-10T00:07:57;46.90;;;24.90;;
69026;SDS011;56080;47.594;19.116;2023-02-10T00:17:57;60.90;;;31.00;;
69026;SDS011;56080;47.594;19.116;2023-02-10T00:27:56;52.90;;;27.90;;
69026;SDS011;56080;47.594;19.116;2023-02-10T00:37:56;58.10;;;31.30;;
69026;SDS011;56080;47.594;19.116;2023-02-10T00:47:57;50.60;;;25.00;;
69026;SDS011;56080;47.594;19.116;2023-02-10T00:57:55;58.20;;;27.90;;
69026;SDS011;56080;47.594;19.116;2023-02-10T01:07:55;59.80;;;31.50;;
69026;SDS011;56080;47.594;19.116;2023-02-10T01:17:55;46.50;;;25.40;;
69026;SDS011;56080;47.594;19.116;2023-02-10T01:27:54;51.40;;;26.20;;
69026;SDS011;56080;47.594;19.116;2023-02-10T01:37:54;50.30;;;27.10;;
69026;SDS011;56080;47.594;19.116;2023-02-10T01:47:55;50.80;;;26.40;;
69026;SDS011;56080;47.594;19.116;2023-02-10T01:57:54;54.20;;;26.40;;
69026;SDS011;56080;47.594;19.116;2023-02-10T02:07:53;58.60;;;28.50;;
69026;SDS011;56080;47.594;19.116;2023-02-10T02:28:00;46.40;;;24.20;;
69026;SDS011;56080;47.594;19.116;2023-02-10T02:37:53;51.10;;;26.20;;
69026;SDS011;56080;47.594;19.116;2023-02-10T02:58:02;46.50;;;24.70;;
69026;SDS011;56080;47.594;19.116;2023-02-10T03:07:51;52.40;;;25.70;;
69026;SDS011;56080;47.594;19.116;2023-02-10T03:17:51;49.80;;;23.50;;
69026;SDS011;56080;47.594;19.116;2023-02-10T03:27:50;53.80;;;25.20;;
69026;SDS011;56080;47.594;19.116;2023-02-10T03:37:50;48.30;;;25.30;;
69026;SDS011;56080;47.594;19.116;2023-02-10T03:47:50;52.80;;;25.50;;
69026;SDS011;56080;47.594;19.116;2023-02-10T03:57:49;49.50;;;23.60;;
69026;SDS011;56080;47.594;19.116;2023-02-10T04:07:49;50.60;;;24.90;;
69026;SDS011;56080;47.594;19.116;2023-02-10T04:17:49;47.10;;;22.00;;
69026;SDS011;56080;47.594;19.116;2023-02-10T04:27:48;44.40;;;21.30;;
69026;SDS011;56080;47.594;19.116;2023-02-10T04:37:47;59.60;;;27.20;;
69026;SDS011;56080;47.594;19.116;2023-02-10T04:47:47;64.70;;;29.80;;
69026;SDS011;56080;47.594;19.116;2023-02-10T04:57:46;45.70;;;22.90;;
69026;SDS011;56080;47.594;19.116;2023-02-10T05:07:46;53.30;;;25.50;;
69026;SDS011;56080;47.594;19.116;2023-02-10T05:17:46;47.80;;;23.20;;
69026;SDS011;56080;47.594;19.116;2023-02-10T05:27:46;52.60;;;25.50;;
69026;SDS011;56080;47.594;19.116;2023-02-10T05:37:45;51.80;;;24.70;;
69026;SDS011;56080;47.594;19.116;2023-02-10T05:47:44;48.40;;;24.00;;
69026;SDS011;56080;47.594;19.116;2023-02-10T05:57:44;46.20;;;22.20;;
69026;SDS011;56080;47.594;19.116;2023-02-10T06:07:44;50.40;;;24.60;;
69026;SDS011;56080;47.594;19.116;2023-02-10T06:17:43;49.50;;;22.90;;
69026;SDS011;56080;47.594;19.116;2023-02-10T06:27:42;42.60;;;21.80;;
69026;SDS011;56080;47.594;19.116;2023-02-10T06:37:42;57.70;;;28.20;;
69026;SDS011;56080;47.594;19.116;2023-02-10T06:47:42;43.40;;;22.10;;
69026;SDS011;56080;47.594;19.116;2023-02-10T06:57:41;42.20;;;21.30;;
69026;SDS011;56080;47.594;19.116;2023-02-10T07:07:41;50.70;;;27.10;;
69026;SDS011;56080;47.594;19.116;2023-02-10T07:17:40;47.80;;;25.50;;
69026;SDS011;56080;47.594;19.116;2023-02-10T07:27:40;43.70;;;22.70;;
69026;SDS011;56080;47.594;19.116;2023-02-10T07:47:39;46.10;;;24.20;;
69026;SDS011;56080;47.594;19.116;2023-02-10T07:57:39;47.20;;;25.20;;
69026;SDS011;56080;47.594;19.116;2023-02-10T08:07:39;44.60;;;24.70;;
69026;SDS011;56080;47.594;19.116;2023-02-10T08:17:38;49.90;;;28.10;;
69026;SDS011;56080;47.594;19.116;2023-02-10T08:27:40;46.20;;;24.80;;
69026;SDS011;56080;47.594;19.116;2023-02-10T08:37:38;40.40;;;23.40;;
69026;SDS011;56080;47.594;19.116;2023-02-10T08:47:38;54.70;;;31.60;;
69026;SDS011;56080;47.594;19.116;2023-02-10T08:57:39;56.50;;;33.00;;
69026;SDS011;56080;47.594;19.116;2023-02-10T09:07:39;60.00;;;35.60;;
69026;SDS011;56080;47.594;19.116;2023-02-10T09:17:39;58.00;;;34.70;;
69026;SDS011;56080;47.594;19.116;2023-02-10T09:27:39;56.10;;;33.30;;
69026;SDS011;56080;47.594;19.116;2023-02-10T09:37:39;48.10;;;28.40;;
69026;SDS011;56080;47.594;19.116;2023-02-10T09:47:43;41.40;;;23.70;;
69026;SDS011;56080;47.594;19.116;2023-02-10T09:57:52;43.10;;;24.00;;
69026;SDS011;56080;47.594;19.116;2023-02-10T10:07:43;35.20;;;19.50;;
69026;SDS011;56080;47.594;19.116;2023-02-10T10:27:49;25.60;;;15.20;;
69026;SDS011;56080;47.594;19.116;2023-02-10T10:37:41;23.20;;;13.40;;
69026;SDS011;56080;47.594;19.116;2023-02-10T10:47:51;19.20;;;9.60;;
69026;SDS011;56080;47.594;19.116;2023-02-10T10:57:42;13.90;;;6.90;;
69026;SDS011;56080;47.594;19.116;2023-02-10T11:07:43;15.70;;;7.90;;
69026;SDS011;56080;47.594;19.116;2023-02-10T11:17:45;13.90;;;6.90;;
69026;SDS011;56080;47.594;19.116;2023-02-10T11:27:50;14.40;;;7.40;;
69026;SDS011;56080;47.594;19.116;2023-02-10T11:37:49;14.50;;;7.30;;
69026;SDS011;56080;47.594;19.116;2023-02-10T11:47:44;14.60;;;8.00;;
69026;SDS011;56080;47.594;19.116;2023-02-10T12:28:03;14.80;;;7.60;;
69026;SDS011;56080;47.594;19.116;2023-02-10T12:57:57;15.50;;;8.30;;
69026;SDS011;56080;47.594;19.116;2023-02-10T13:07:53;13.10;;;6.70;;
69026;SDS011;56080;47.594;19.116;2023-02-10T13:17:51;16.60;;;8.50;;
69026;SDS011;56080;47.594;19.116;2023-02-10T13:37:50;16.50;;;7.90;;
69026;SDS011;56080;47.594;19.116;2023-02-10T13:47:54;17.10;;;8.30;;
69026;SDS011;56080;47.594;19.116;2023-02-10T14:07:48;16.40;;;8.70;;
69026;SDS011;56080;47.594;19.116;2023-02-10T14:17:53;16.90;;;8.50;;
69026;SDS011;56080;47.594;19.116;2023-02-10T14:27:49;15.30;;;8.00;;
69026;SDS011;56080;47.594;19.116;2023-02-10T14:37:58;16.30;;;8.60;;
69026;SDS011;56080;47.594;19.116;2023-02-10T14:47:54;15.60;;;8.20;;
69026;SDS011;56080;47.594;19.116;2023-02-10T15:07:55;16.20;;;8.60;;
69026;SDS011;56080;47.594;19.116;2023-02-10T15:17:54;15.30;;;8.20;;
69026;SDS011;56080;47.594;19.116;2023-02-10T15:27:51;16.00;;;8.30;;
69026;SDS011;56080;47.594;19.116;2023-02-10T15:37:51;17.40;;;8.90;;
69026;SDS011;56080;47.594;19.116;2023-02-10T15:47:59;18.50;;;8.90;;
69026;SDS011;56080;47.594;19.116;2023-02-10T16:07:52;16.30;;;8.50;;
69026;SDS011;56080;47.594;19.116;2023-02-10T16:17:57;15.40;;;8.50;;
69026;SDS011;56080;47.594;19.116;2023-02-10T16:27:53;17.60;;;8.20;;
69026;SDS011;56080;47.594;19.116;2023-02-10T16:37:53;17.20;;;8.50;;
69026;SDS011;56080;47.594;19.116;2023-02-10T16:47:53;15.40;;;8.50;;
69026;SDS011;56080;47.594;19.116;2023-02-10T16:57:54;17.60;;;8.50;;
69026;SDS011;56080;47.594;19.116;2023-02-10T17:07:54;18.30;;;9.40;;
69026;SDS011;56080;47.594;19.116;2023-02-10T17:17:54;16.30;;;8.90;;
69026;SDS011;56080;47.594;19.116;2023-02-10T17:27:54;18.30;;;9.80;;
69026;SDS011;56080;47.594;19.116;2023-02-10T17:37:55;19.60;;;9.90;;
69026;SDS011;56080;47.594;19.116;2023-02-10T17:47:57;19.90;;;10.60;;
69026;SDS011;56080;47.594;19.116;2023-02-10T17:57:55;21.60;;;10.10;;
69026;SDS011;56080;47.594;19.116;2023-02-10T18:07:55;19.20;;;10.80;;
69026;SDS011;56080;47.594;19.116;2023-02-10T18:17:57;21.50;;;11.60;;
69026;SDS011;56080;47.594;19.116;2023-02-10T18:27:56;19.20;;;10.80;;
69026;SDS011;56080;47.594;19.116;2023-02-10T18:37:56;21.40;;;11.40;;
69026;SDS011;56080;47.594;19.116;2023-02-10T18:47:58;20.70;;;10.40;;
69026;SDS011;56080;47.594;19.116;2023-02-10T18:57:56;18.60;;;10.20;;
69026;SDS011;56080;47.594;19.116;2023-02-10T19:07:57;24.50;;;13.80;;
69026;SDS011;56080;47.594;19.116;2023-02-10T19:17:56;29.20;;;16.40;;
69026;SDS011;56080;47.594;19.116;2023-02-10T19:27:57;30.20;;;15.50;;
69026;SDS011;56080;47.594;19.116;2023-02-10T19:37:58;29.70;;;16.20;;
69026;SDS011;56080;47.594;19.116;2023-02-10T19:47:58;33.60;;;16.70;;
69026;SDS011;56080;47.594;19.116;2023-02-10T19:57:59;29.30;;;16.00;;
69026;SDS011;56080;47.594;19.116;2023-02-10T20:07:59;28.80;;;14.50;;
69026;SDS011;56080;47.594;19.116;2023-02-10T20:17:59;27.30;;;14.50;;
69026;SDS011;56080;47.594;19.116;2023-02-10T20:28:00;21.20;;;12.40;;
69026;SDS011;56080;47.594;19.116;2023-02-10T20:37:58;25.20;;;13.50;;
69026;SDS011;56080;47.594;19.116;2023-02-10T20:47:59;29.60;;;14.90;;
69026;SDS011;56080;47.594;19.116;2023-02-10T20:58:00;29.80;;;15.70;;
69026;SDS011;56080;47.594;19.116;2023-02-10T21:07:58;29.30;;;15.60;;
69026;SDS011;56080;47.594;19.116;2023-02-10T21:17:58;25.60;;;14.60;;
69026;SDS011;56080;47.594;19.116;2023-02-10T21:27:59;27.30;;;14.60;;
69026;SDS011;56080;47.594;19.116;2023-02-10T21:37:59;32.20;;;17.20;;
69026;SDS011;56080;47.594;19.116;2023-02-10T21:47:59;34.50;;;18.20;;
69026;SDS011;56080;47.594;19.116;2023-02-10T21:57:59;30.80;;;17.40;;
69026;SDS011;56080;47.594;19.116;2023-02-10T22:07:59;34.40;;;18.80;;
69026;SDS011;56080;47.594;19.116;2023-02-10T22:17:59;37.10;;;19.60;;
69026;SDS011;56080;47.594;19.116;2023-02-10T22:27:59;35.90;;;20.00;;
69026;SDS011;56080;47.594;19.116;2023-02-10T22:37:59;34.00;;;19.50;;
69026;SDS011;56080;47.594;19.116;2023-02-10T22:48:01;33.90;;;18.50;;
69026;SDS011;56080;47.594;19.116;2023-02-10T22:57:59;39.00;;;21.70;;
69026;SDS011;56080;47.594;19.116;2023-02-10T23:07:58;37.40;;;18.90;;
69026;SDS011;56080;47.594;19.116;2023-02-10T23:17:58;40.40;;;20.40;;
69026;SDS011;56080;47.594;19.116;2023-02-10T23:27:58;31.30;;;16.90;;
69026;SDS011;56080;47.594;19.116;2023-02-10T23:37:59;35.60;;;19.60;;
69026;SDS011;56080;47.594;19.116;2023-02-10T23:47:59;36.80;;;19.60;;
69026;SDS011;56080;47.594;19.116;2023-02-10T23:57:58;38.50;;;19.80;;
